Keegan Foss — WCW5595 — position and weather

sailwx.info

Track history (hours):
 
Tides and Currents Weather Stations Pressure Air Temp Water Temp Dewpoint Dewpoint Depression Visibility Wind Speed Wind Dir Waves Ship Positions

Keegan Foss

Owner: FOSS MARITIME CO, SEATTLE, WA. More information available from US FCC via Universal Licensing System and Coast Guard Vessel Documentation Center.

Last reported at 2018-Jul-22 06:30 UTC. Time now 2018-Jul-22 06:30 UTC.
Position N 37°55' W 122°22'.

Length 31 m; draft 3.6 m.

Type: Tug. MMSI: 366979330.

Date/timePositionNaut miles runAvg speedWind from/ knotsBaromVisibWave heightAir tempDewpointWater temp
2018-Jul-22 06:30N 37°55' W 122°22'1 1.5
2018-Jul-22 06:01N 37°54' W 122°22'2 4.6
2018-Jul-22 05:30N 37°54' W 122°25'4 7.6
2018-Jul-22 05:00N 37°50' W 122°23'4 8.8
2018-Jul-22 04:30N 37°46' W 122°21'2 4.3
2018-Jul-22 03:59N 37°44' W 122°20'0 0.0
2018-Jul-22 03:26N 37°44' W 122°20'0 0.1
2018-Jul-22 02:59N 37°44' W 122°20'0 0.0
2018-Jul-22 02:29N 37°44' W 122°20'0 0.1
2018-Jul-22 01:59N 37°44' W 122°20'0 0.0
2018-Jul-22 01:29N 37°44' W 122°20'0 0.0
2018-Jul-22 00:59N 37°44' W 122°20'0 0.0
2018-Jul-22 00:29N 37°44' W 122°20'0 0.0
2018-Jul-21 23:59N 37°44' W 122°20'0 0.0
2018-Jul-21 23:29N 37°44' W 122°20'0 0.0
2018-Jul-21 22:59N 37°44' W 122°20'0 0.0
2018-Jul-21 22:29N 37°44' W 122°20'0 0.1
2018-Jul-21 21:59N 37°44' W 122°20'0 0.0
2018-Jul-21 21:30N 37°44' W 122°20'1 1.6
2018-Jul-21 21:00N 37°45' W 122°21'4 7.0
2018-Jul-21 20:30N 37°48' W 122°22'3 6.7
2018-Jul-21 20:00N 37°51' W 122°24'3 6.9
2018-Jul-21 19:30N 37°54' W 122°24'1 2.6
2018-Jul-21 19:00N 37°54' W 122°22'0 0.1
2018-Jul-21 18:29N 37°54' W 122°22'0 0.0
2018-Jul-21 17:59N 37°54' W 122°22'0 0.0
2018-Jul-21 17:26N 37°54' W 122°22'0 0.0
2018-Jul-21 16:59N 37°54' W 122°22'0 0.0
2018-Jul-21 16:29N 37°54' W 122°22'0 0.0
2018-Jul-21 15:59N 37°54' W 122°22'0 0.0
2018-Jul-21 15:29N 37°54' W 122°22'0 0.0
2018-Jul-21 14:59N 37°54' W 122°22'0 0.0
2018-Jul-21 14:29N 37°54' W 122°22'0 0.0
2018-Jul-21 13:59N 37°54' W 122°22'0 0.0
2018-Jul-21 13:29N 37°54' W 122°22'0 0.0
2018-Jul-21 12:59N 37°54' W 122°22'0 0.0
2018-Jul-21 12:29N 37°54' W 122°22'0 0.0
2018-Jul-21 11:59N 37°54' W 122°22'0 0.0
2018-Jul-21 11:29N 37°54' W 122°22'0 0.0
2018-Jul-21 10:59N 37°54' W 122°22'0 0.0
2018-Jul-21 10:29N 37°54' W 122°22'0 0.0
2018-Jul-21 09:59N 37°54' W 122°22'0 0.0
2018-Jul-21 09:29N 37°54' W 122°22'0 0.0
2018-Jul-21 08:59N 37°54' W 122°22'0 0.0
2018-Jul-21 08:29N 37°54' W 122°22'0 0.0
2018-Jul-21 07:59N 37°54' W 122°22'0 0.0
2018-Jul-21 07:29N 37°54' W 122°22'0 0.0
2018-Jul-21 06:59N 37°54' W 122°22'0 0.0
2018-Jul-21 06:29N 37°54' W 122°22'0 0.0
2018-Jul-21 05:59N 37°54' W 122°22'0 0.0
2018-Jul-21 05:29N 37°54' W 122°22'0 0.0
2018-Jul-21 04:59N 37°54' W 122°22'0 0.0
2018-Jul-21 04:29N 37°54' W 122°22'0 0.0
2018-Jul-21 04:00N 37°54' W 122°22'0 0.0
2018-Jul-21 03:30N 37°54' W 122°22'1 1.8
2018-Jul-21 03:00N 37°55' W 122°22'1 1.4
2018-Jul-21 02:30N 37°55' W 122°22'1 1.0
2018-Jul-21 02:00N 37°54' W 122°22'2 4.1
2018-Jul-21 01:30N 37°55' W 122°25'0 0.0
2018-Jul-21 01:00N 37°55' W 122°25'1 1.2
2018-Jul-21 00:30N 37°55' W 122°25'1 2.4
2018-Jul-21 00:00N 37°54' W 122°25'1 2.1
2018-Jul-20 23:27N 37°55' W 122°25'0 0.0
2018-Jul-20 23:00N 37°55' W 122°25'1 1.1
2018-Jul-20 22:30N 37°55' W 122°25'1 1.1
2018-Jul-20 22:00N 37°55' W 122°25'0 0.3
2018-Jul-20 21:30N 37°55' W 122°25'0 0.0
2018-Jul-20 20:59N 37°55' W 122°25'0 0.0
2018-Jul-20 20:29N 37°55' W 122°25'0 0.0
2018-Jul-20 19:59N 37°55' W 122°25'0 0.0
2018-Jul-20 19:26N 37°55' W 122°25'0 0.0
2018-Jul-20 18:59N 37°55' W 122°25'0 0.1
2018-Jul-20 18:29N 37°55' W 122°25'0 0.1
2018-Jul-20 17:59N 37°55' W 122°25'0 0.0
2018-Jul-20 17:29N 37°55' W 122°25'0 0.0
2018-Jul-20 16:59N 37°55' W 122°25'0 0.0
2018-Jul-20 16:29N 37°55' W 122°25'0 0.0
2018-Jul-20 15:59N 37°55' W 122°25'0 0.0
2018-Jul-20 15:29N 37°55' W 122°25'0 0.0
2018-Jul-20 14:59N 37°55' W 122°25'0 0.0
2018-Jul-20 14:20N 37°55' W 122°25'0 0.0
2018-Jul-20 13:59N 37°55' W 122°25'0 0.0
2018-Jul-20 13:29N 37°55' W 122°25'0 0.0
2018-Jul-20 12:59N 37°55' W 122°25'0 0.0
2018-Jul-20 12:26N 37°55' W 122°25'0 0.0
2018-Jul-20 11:56N 37°55' W 122°25'0 0.0
2018-Jul-20 11:30N 37°55' W 122°25'1 2.1
2018-Jul-20 11:00N 37°55' W 122°25'1 2.3
2018-Jul-20 10:30N 37°56' W 122°25'0 0.0
2018-Jul-20 10:00N 37°56' W 122°25'1 2.1
2018-Jul-20 09:30N 37°55' W 122°24'2 3.4
2018-Jul-20 09:00N 37°54' W 122°22'0 0.0
2018-Jul-20 08:31N 37°54' W 122°22'0 0.0
2018-Jul-20 08:00N 37°54' W 122°22'0 0.0
2018-Jul-20 07:30N 37°54' W 122°22'0 0.0
2018-Jul-20 07:00N 37°54' W 122°22'0 0.0
2018-Jul-20 06:30N 37°54' W 122°22'0 0.0
2018-Jul-20 06:00N 37°54' W 122°22'0 0.9
2018-Jul-20 05:30N 37°54' W 122°22'0 0.2
2018-Jul-20 05:00N 37°54' W 122°22'1 1.9
2018-Jul-20 04:31N 37°54' W 122°23'0 0.9
2018-Jul-20 04:00N 37°54' W 122°23'2 3.6
2018-Jul-20 03:30N 37°53' W 122°25'3 6.9
2018-Jul-20 03:00N 37°50' W 122°22'1 1.6
2018-Jul-20 02:30N 37°49' W 122°22'0 0.1
2018-Jul-20 02:00N 37°49' W 122°22'0 0.1
2018-Jul-20 01:31N 37°49' W 122°22'1 2.9
2018-Jul-20 01:00N 37°51' W 122°23'3 6.7
2018-Jul-20 00:31N 37°53' W 122°25'2 4.2
2018-Jul-20 00:01N 37°54' W 122°22'2 3.7
2018-Jul-19 23:30N 37°55' W 122°25'0 0.7
2018-Jul-19 23:00N 37°55' W 122°25'0 0.1
2018-Jul-19 22:31N 37°55' W 122°25'2 3.5
2018-Jul-19 22:01N 37°54' W 122°25'1 1.2
2018-Jul-19 21:31N 37°53' W 122°25'2 3.7
2018-Jul-19 21:01N 37°55' W 122°25'0 0.9
2018-Jul-19 20:30N 37°55' W 122°25'0 0.0
2018-Jul-19 20:00N 37°55' W 122°25'0 0.0
2018-Jul-19 19:30N 37°55' W 122°25'0 0.0
2018-Jul-19 19:00N 37°55' W 122°25'0 0.0
2018-Jul-19 18:30N 37°55' W 122°25'0 0.0
2018-Jul-19 18:00N 37°55' W 122°25'0 0.0
2018-Jul-19 17:30N 37°55' W 122°25'0 0.0
2018-Jul-19 17:00N 37°55' W 122°25'0 0.0
2018-Jul-19 16:30N 37°55' W 122°25'0 0.0
2018-Jul-19 16:00N 37°55' W 122°25'0 0.0
2018-Jul-19 15:30N 37°55' W 122°25'0 0.0
2018-Jul-19 15:00N 37°55' W 122°25'0 0.0
2018-Jul-19 14:30N 37°55' W 122°25'0 0.0
2018-Jul-19 13:30N 37°55' W 122°25'0 0.0
2018-Jul-19 13:00N 37°55' W 122°25'0 0.0
2018-Jul-19 12:30N 37°55' W 122°25'0 0.0
2018-Jul-19 12:00N 37°55' W 122°25'0 0.0
2018-Jul-19 11:30N 37°55' W 122°25'0 0.0
2018-Jul-19 11:00N 37°55' W 122°25'0 0.5
2018-Jul-19 10:31N 37°55' W 122°25'2 3.9
2018-Jul-19 10:00N 37°54' W 122°22'0 0.0
2018-Jul-19 09:30N 37°54' W 122°22'0 0.0
2018-Jul-19 09:00N 37°54' W 122°22'0 0.0
2018-Jul-19 08:30N 37°54' W 122°22'0 0.0
2018-Jul-19 08:00N 37°54' W 122°22'0 0.0
2018-Jul-19 07:27N 37°54' W 122°22'0 0.0
2018-Jul-19 07:00N 37°54' W 122°22'0 0.0
2018-Jul-19 06:27N 37°54' W 122°22'0 0.0
2018-Jul-19 06:00N 37°54' W 122°22'0 0.0
2018-Jul-19 05:30N 37°54' W 122°22'0 0.0
2018-Jul-19 05:00N 37°54' W 122°22'0 0.0
2018-Jul-19 04:30N 37°54' W 122°22'1 1.1
2018-Jul-19 04:00N 37°54' W 122°23'2 3.7
2018-Jul-19 03:30N 37°56' W 122°25'0 0.2
2018-Jul-19 03:00N 37°55' W 122°25'2 4.0
2018-Jul-19 02:30N 37°54' W 122°25'2 4.6
2018-Jul-19 02:00N 37°52' W 122°27'2 4.5
2018-Jul-19 01:30N 37°50' W 122°28'3 6.7
2018-Jul-19 01:01N 37°53' W 122°26'3 6.0
2018-Jul-19 00:30N 37°55' W 122°25'0 0.0
2018-Jul-19 00:00N 37°55' W 122°25'0 0.0
2018-Jul-18 23:30N 37°55' W 122°25'0 0.0
2018-Jul-18 23:00N 37°55' W 122°25'0 0.0
2018-Jul-18 22:30N 37°55' W 122°25'0 0.0
2018-Jul-18 22:00N 37°55' W 122°25'0 0.0
2018-Jul-18 21:30N 37°55' W 122°25'0 0.0
2018-Jul-18 20:54N 37°55' W 122°25'0 0.0
2018-Jul-18 20:30N 37°55' W 122°25'0 0.0
2018-Jul-18 20:00N 37°55' W 122°25'0 0.0
2018-Jul-18 19:30N 37°55' W 122°25'0 0.0
2018-Jul-18 19:00N 37°55' W 122°25'0 0.0
2018-Jul-18 18:30N 37°55' W 122°25'0 0.0
2018-Jul-18 18:00N 37°55' W 122°25'0 0.0
2018-Jul-18 17:30N 37°55' W 122°25'0 0.0
2018-Jul-18 17:00N 37°55' W 122°25'0 0.0
2018-Jul-18 16:30N 37°55' W 122°25'0 0.0
2018-Jul-18 16:00N 37°55' W 122°25'0 0.0
2018-Jul-18 15:30N 37°55' W 122°25'0 0.0
2018-Jul-18 15:00N 37°55' W 122°25'0 0.0
2018-Jul-18 14:30N 37°55' W 122°25'0 0.0
2018-Jul-18 13:30N 37°55' W 122°25'0 0.0
2018-Jul-18 13:00N 37°55' W 122°25'0 0.0
2018-Jul-18 12:12N 37°55' W 122°25'0 0.0
2018-Jul-18 12:00N 37°55' W 122°25'0 0.0
2018-Jul-18 11:30N 37°55' W 122°25'0 0.0
2018-Jul-18 10:30N 37°55' W 122°25'0 0.0
2018-Jul-18 10:00N 37°55' W 122°25'2 4.0
2018-Jul-18 09:30N 37°54' W 122°22'0 0.0
2018-Jul-18 08:58N 37°54' W 122°22'0 0.0
2018-Jul-18 08:29N 37°54' W 122°22'0 0.0
2018-Jul-18 07:59N 37°54' W 122°22'0 0.0
2018-Jul-18 07:28N 37°54' W 122°22'0 0.0
2018-Jul-18 06:55N 37°54' W 122°22'0 0.0
2018-Jul-18 06:28N 37°54' W 122°22'0 0.0
2018-Jul-18 05:58N 37°54' W 122°22'0 0.0
2018-Jul-18 05:28N 37°54' W 122°22'0 0.0
2018-Jul-18 04:58N 37°54' W 122°22'0 0.0
2018-Jul-18 04:26N 37°54' W 122°22'0 0.0
2018-Jul-18 03:59N 37°54' W 122°22'0 0.0
2018-Jul-18 03:28N 37°54' W 122°22'0 0.0
2018-Jul-18 02:58N 37°54' W 122°22'0 0.0
2018-Jul-18 02:28N 37°54' W 122°22'0 0.0
2018-Jul-18 01:58N 37°54' W 122°22'2 4.3
2018-Jul-18 01:31N 37°55' W 122°25'0 0.0
2018-Jul-18 00:58N 37°55' W 122°25'0 0.0
2018-Jul-18 00:28N 37°55' W 122°25'0 0.0
2018-Jul-17 23:55N 37°55' W 122°25'0 0.0
2018-Jul-17 23:28N 37°55' W 122°25'0 0.0
2018-Jul-17 22:58N 37°55' W 122°25'0 0.0
2018-Jul-17 22:22N 37°55' W 122°25'0 0.0
2018-Jul-17 21:58N 37°55' W 122°25'0 0.0
2018-Jul-17 21:28N 37°55' W 122°25'0 0.0
2018-Jul-17 20:55N 37°55' W 122°25'0 0.0
2018-Jul-17 20:28N 37°55' W 122°25'0 0.0
2018-Jul-17 19:58N 37°55' W 122°25'0 0.1
2018-Jul-17 19:30N 37°55' W 122°25'1 1.1
2018-Jul-17 19:00N 37°55' W 122°25'1 1.2
2018-Jul-17 18:30N 37°55' W 122°25'0 0.0
2018-Jul-17 18:01N 37°55' W 122°25'0 0.0
2018-Jul-17 17:31N 37°55' W 122°25'0 0.0
2018-Jul-17 17:01N 37°55' W 122°25'0 0.0
2018-Jul-17 16:31N 37°55' W 122°25'0 0.0
2018-Jul-17 16:01N 37°55' W 122°25'0 0.4
2018-Jul-17 15:31N 37°55' W 122°25'0 0.0
2018-Jul-17 15:00N 37°55' W 122°25'2 3.1
2018-Jul-17 14:31N 37°54' W 122°25'0 0.9
2018-Jul-17 14:01N 37°54' W 122°25'1 2.5
2018-Jul-17 13:30N 37°55' W 122°25'0 0.0
2018-Jul-17 13:00N 37°55' W 122°25'0 0.0
2018-Jul-17 12:31N 37°55' W 122°25'0 0.0
2018-Jul-17 12:00N 37°55' W 122°25'0 0.0
2018-Jul-17 11:29N 37°55' W 122°25'1 1.9
2018-Jul-17 11:00N 37°55' W 122°24'2 3.6
2018-Jul-17 10:31N 37°54' W 122°22'0 0.0
2018-Jul-17 10:01N 37°54' W 122°22'0 0.0
2018-Jul-17 09:31N 37°54' W 122°22'0 0.0
2018-Jul-17 09:01N 37°54' W 122°22'0 0.0
2018-Jul-17 08:31N 37°54' W 122°22'0 0.0
2018-Jul-17 08:00N 37°54' W 122°22'0 0.0
2018-Jul-17 07:31N 37°54' W 122°22'0 0.0
2018-Jul-17 07:00N 37°54' W 122°22'0 0.0
2018-Jul-17 06:30N 37°54' W 122°22'0 0.2
2018-Jul-17 06:01N 37°54' W 122°22'1 1.8
2018-Jul-17 05:30N 37°55' W 122°22'0 0.5
2018-Jul-17 05:01N 37°55' W 122°22'1 1.6
2018-Jul-17 04:30N 37°54' W 122°22'0 0.0
2018-Jul-17 04:01N 37°54' W 122°22'2 4.0
2018-Jul-17 03:31N 37°55' W 122°25'0 0.0
2018-Jul-17 03:01N 37°55' W 122°25'0 0.0
2018-Jul-17 02:31N 37°55' W 122°25'0 0.0
2018-Jul-17 02:00N 37°55' W 122°25'0 0.0
2018-Jul-17 01:31N 37°55' W 122°25'0 0.0
2018-Jul-17 01:01N 37°55' W 122°25'0 0.0
2018-Jul-17 00:31N 37°55' W 122°25'0 0.0
2018-Jul-16 23:30N 37°55' W 122°25'0 0.0
2018-Jul-16 23:00N 37°55' W 122°25'0 0.0
2018-Jul-16 22:30N 37°55' W 122°25'2 4.7
2018-Jul-16 22:00N 37°54' W 122°22'0 0.8
2018-Jul-16 21:31N 37°55' W 122°22'0 0.2
2018-Jul-16 21:01N 37°55' W 122°22'2 3.7
2018-Jul-16 20:31N 37°55' W 122°24'1 2.1
2018-Jul-16 20:01N 37°55' W 122°25'1 2.2
2018-Jul-16 19:31N 37°55' W 122°24'1 2.9
2018-Jul-16 19:00N 37°54' W 122°22'0 0.0
2018-Jul-16 18:29N 37°54' W 122°22'0 0.0
2018-Jul-16 17:59N 37°54' W 122°22'0 0.1
2018-Jul-16 17:30N 37°54' W 122°22'1 1.9
2018-Jul-16 17:00N 37°55' W 122°22'1 1.7
2018-Jul-16 16:30N 37°54' W 122°22'3 5.3
2018-Jul-16 16:00N 37°54' W 122°25'3 6.1
2018-Jul-16 15:30N 37°51' W 122°24'4 8.2
2018-Jul-16 15:00N 37°47' W 122°21'1 2.4
2018-Jul-16 14:30N 37°46' W 122°21'0 0.0
2018-Jul-16 13:57N 37°46' W 122°21'0 0.0
2018-Jul-16 13:22N 37°46' W 122°21'0 0.0
2018-Jul-16 13:01N 37°46' W 122°21'0 0.0
2018-Jul-16 12:30N 37°46' W 122°21'0 0.1
2018-Jul-16 12:00N 37°46' W 122°20'0 0.0
2018-Jul-16 11:30N 37°46' W 122°20'0 0.1
2018-Jul-16 11:00N 37°46' W 122°20'0 0.2
2018-Jul-16 10:31N 37°46' W 122°20'0 0.2
2018-Jul-16 10:01N 37°46' W 122°20'0 0.0
2018-Jul-16 09:27N 37°46' W 122°20'0 0.1
2018-Jul-16 09:00N 37°46' W 122°20'0 0.0
2018-Jul-16 08:30N 37°46' W 122°20'0 0.0
2018-Jul-16 08:00N 37°46' W 122°20'0 0.0
2018-Jul-16 07:27N 37°46' W 122°20'0 0.0
2018-Jul-16 07:00N 37°46' W 122°20'0 0.1
2018-Jul-16 06:30N 37°46' W 122°20'0 0.1
2018-Jul-16 06:01N 37°46' W 122°20'3 5.1
2018-Jul-16 05:30N 37°48' W 122°22'4 7.4
2018-Jul-16 05:00N 37°52' W 122°24'3 5.7
2018-Jul-16 04:30N 37°54' W 122°24'1 2.7
2018-Jul-16 04:01N 37°55' W 122°22'0 0.3
2018-Jul-16 03:30N 37°55' W 122°22'1 1.8
2018-Jul-16 02:59N 37°54' W 122°22'0 0.0
2018-Jul-16 02:29N 37°54' W 122°22'0 0.0
2018-Jul-16 01:59N 37°54' W 122°22'0 0.0
2018-Jul-16 01:29N 37°54' W 122°22'0 0.0
2018-Jul-16 00:59N 37°54' W 122°22'0 0.0
2018-Jul-16 00:29N 37°54' W 122°22'0 0.0
2018-Jul-15 23:59N 37°54' W 122°22'2 4.3
2018-Jul-15 23:30N 37°55' W 122°25'0 0.0
2018-Jul-15 23:00N 37°55' W 122°25'4 7.5
2018-Jul-15 22:30N 37°52' W 122°23'3 5.6
2018-Jul-15 22:00N 37°49' W 122°22'2 4.3
2018-Jul-15 21:30N 37°47' W 122°21'2 3.5
2018-Jul-15 21:00N 37°45' W 122°21'0 0.0
2018-Jul-15 20:30N 37°45' W 122°21'0 0.0
2018-Jul-15 20:01N 37°45' W 122°21'0 0.0
2018-Jul-15 19:30N 37°45' W 122°21'0 0.0
2018-Jul-15 19:01N 37°45' W 122°21'0 0.0
2018-Jul-15 18:30N 37°45' W 122°21'0 0.1
2018-Jul-15 18:00N 37°45' W 122°21'0 0.1
2018-Jul-15 17:30N 37°46' W 122°21'0 0.1
2018-Jul-15 17:01N 37°46' W 122°21'0 0.3
2018-Jul-15 16:30N 37°46' W 122°21'0 0.1
2018-Jul-15 16:00N 37°46' W 122°21'0 0.0
2018-Jul-15 15:30N 37°46' W 122°21'0 0.1
2018-Jul-15 15:00N 37°46' W 122°21'1 2.4
2018-Jul-15 14:30N 37°47' W 122°21'2 4.2
2018-Jul-15 14:00N 37°49' W 122°21'2 3.9
2018-Jul-15 13:30N 37°51' W 122°23'3 7.0
2018-Jul-15 13:00N 37°54' W 122°25'2 3.9
2018-Jul-15 12:30N 37°54' W 122°22'0 0.1
2018-Jul-15 12:00N 37°54' W 122°22'0 0.0
2018-Jul-15 11:30N 37°54' W 122°22'0 0.0
2018-Jul-15 11:00N 37°54' W 122°22'0 0.0
2018-Jul-15 10:30N 37°54' W 122°22'0 0.0
2018-Jul-15 10:00N 37°54' W 122°22'0 0.0
2018-Jul-15 09:30N 37°54' W 122°22'0 0.1
2018-Jul-15 09:00N 37°54' W 122°22'0 0.3
2018-Jul-15 08:30N 37°54' W 122°23'2 4.7
2018-Jul-15 08:00N 37°52' W 122°24'4 7.2
2018-Jul-15 07:31N 37°49' W 122°21'2 3.4
2018-Jul-15 06:59N 37°48' W 122°20'0 0.0
2018-Jul-15 06:29N 37°48' W 122°20'0 0.0
2018-Jul-15 05:59N 37°48' W 122°20'0 0.0
2018-Jul-15 05:26N 37°48' W 122°20'0 0.0
2018-Jul-15 04:59N 37°48' W 122°20'0 0.0
2018-Jul-15 04:29N 37°48' W 122°20'0 0.0
2018-Jul-15 03:59N 37°48' W 122°20'0 0.0
2018-Jul-15 03:29N 37°48' W 122°20'0 0.0
2018-Jul-15 02:59N 37°48' W 122°20'0 0.0
2018-Jul-15 02:29N 37°48' W 122°20'0 0.0
2018-Jul-15 01:59N 37°48' W 122°20'0 0.0
2018-Jul-15 01:29N 37°48' W 122°20'0 0.0
2018-Jul-15 00:59N 37°48' W 122°20'0 0.0
2018-Jul-15 00:29N 37°48' W 122°20'0 0.0
2018-Jul-15 00:00N 37°48' W 122°20'0 0.0
2018-Jul-14 23:31N 37°48' W 122°20'0 0.0
2018-Jul-14 23:01N 37°48' W 122°20'1 2.4
2018-Jul-14 22:30N 37°48' W 122°21'1 2.0
2018-Jul-14 22:00N 37°49' W 122°22'3 6.2
2018-Jul-14 21:30N 37°52' W 122°24'4 7.3
2018-Jul-14 21:00N 37°55' W 122°25'0 0.4
2018-Jul-14 20:30N 37°56' W 122°25'1 1.0
2018-Jul-14 20:00N 37°55' W 122°25'3 5.1
2018-Jul-14 19:30N 37°53' W 122°26'4 7.4
2018-Jul-14 19:01N 37°50' W 122°28'4 7.3
2018-Jul-14 18:30N 37°53' W 122°26'3 5.4
2018-Jul-14 18:00N 37°55' W 122°25'0 0.0
2018-Jul-14 17:30N 37°55' W 122°25'0 0.0
2018-Jul-14 17:00N 37°55' W 122°25'2 4.2
2018-Jul-14 16:30N 37°54' W 122°22'0 0.1
2018-Jul-14 15:59N 37°54' W 122°22'0 0.0
2018-Jul-14 15:29N 37°54' W 122°22'0 0.0
2018-Jul-14 14:59N 37°54' W 122°22'0 0.0
2018-Jul-14 14:29N 37°54' W 122°22'0 0.0
2018-Jul-14 13:29N 37°54' W 122°22'0 0.0
2018-Jul-14 12:59N 37°54' W 122°22'0 0.0
2018-Jul-14 12:29N 37°54' W 122°22'2 4.0
2018-Jul-14 12:00N 37°55' W 122°25'0 0.8
2018-Jul-14 11:30N 37°55' W 122°25'0 0.0
2018-Jul-14 11:00N 37°55' W 122°25'0 0.0
2018-Jul-14 10:30N 37°55' W 122°25'0 0.0
2018-Jul-14 10:00N 37°55' W 122°25'0 0.0
2018-Jul-14 09:30N 37°55' W 122°25'0 0.0
2018-Jul-14 09:00N 37°55' W 122°25'0 0.0
2018-Jul-14 08:30N 37°55' W 122°25'0 0.0
2018-Jul-14 08:00N 37°55' W 122°25'0 0.0
2018-Jul-14 07:30N 37°55' W 122°25'0 0.0
2018-Jul-14 07:00N 37°55' W 122°25'0 0.0
2018-Jul-14 06:30N 37°55' W 122°25'0 0.0
2018-Jul-14 06:00N 37°55' W 122°25'0 0.0
2018-Jul-14 05:30N 37°55' W 122°25'0 0.0
2018-Jul-14 05:00N 37°55' W 122°25'0 0.0
2018-Jul-14 04:30N 37°55' W 122°25'0 0.0
2018-Jul-14 04:00N 37°55' W 122°25'0 0.0
2018-Jul-14 03:30N 37°55' W 122°25'0 0.0
2018-Jul-14 03:00N 37°55' W 122°25'0 0.0
2018-Jul-14 02:30N 37°55' W 122°25'0 0.0
2018-Jul-14 02:00N 37°55' W 122°25'0 0.0
2018-Jul-14 01:30N 37°55' W 122°25'0 0.0
2018-Jul-14 01:00N 37°55' W 122°25'0 0.0
2018-Jul-14 00:30N 37°55' W 122°25'0 0.4
2018-Jul-14 00:00N 37°55' W 122°25'1 1.1
2018-Jul-13 23:30N 37°55' W 122°25'2 4.6
2018-Jul-13 23:00N 37°55' W 122°22'1 1.1
2018-Jul-13 22:30N 37°55' W 122°22'0 0.1
2018-Jul-13 22:00N 37°55' W 122°22'2 3.9
2018-Jul-13 21:30N 37°55' W 122°25'0 0.0
2018-Jul-13 21:00N 37°55' W 122°25'0 1.0
2018-Jul-13 20:30N 37°55' W 122°25'2 3.4
2018-Jul-13 20:00N 37°54' W 122°25'1 1.7
2018-Jul-13 19:30N 37°54' W 122°24'2 2.6
2018-Jul-13 18:55N 37°54' W 122°22'0 0.0
2018-Jul-13 18:28N 37°54' W 122°22'0 0.0
2018-Jul-13 17:52N 37°54' W 122°22'0 0.0
2018-Jul-13 17:28N 37°54' W 122°22'0 0.0
2018-Jul-13 16:58N 37°54' W 122°22'0 0.0
2018-Jul-13 16:28N 37°54' W 122°22'0 0.0
2018-Jul-13 15:58N 37°54' W 122°22'0 0.0
2018-Jul-13 15:28N 37°54' W 122°22'0 0.0
2018-Jul-13 14:58N 37°54' W 122°22'0 0.0
2018-Jul-13 14:28N 37°54' W 122°22'0 0.0
2018-Jul-13 13:28N 37°54' W 122°22'0 0.0
2018-Jul-13 12:58N 37°54' W 122°22'0 0.0
2018-Jul-13 12:28N 37°54' W 122°22'0 0.0
2018-Jul-13 11:58N 37°54' W 122°22'0 0.0
2018-Jul-13 11:28N 37°54' W 122°22'0 0.0
2018-Jul-13 10:55N 37°54' W 122°22'0 0.0
2018-Jul-13 10:28N 37°54' W 122°22'0 0.0
2018-Jul-13 09:58N 37°54' W 122°22'0 0.0
2018-Jul-13 09:28N 37°54' W 122°22'0 0.0
2018-Jul-13 08:58N 37°54' W 122°22'0 0.0
2018-Jul-13 08:28N 37°54' W 122°22'0 0.0
2018-Jul-13 07:58N 37°54' W 122°22'0 0.0
2018-Jul-13 07:28N 37°54' W 122°22'0 0.0
2018-Jul-13 06:58N 37°54' W 122°22'0 0.5
2018-Jul-13 06:30N 37°54' W 122°23'2 4.3
2018-Jul-13 06:00N 37°54' W 122°25'2 3.1
2018-Jul-13 05:30N 37°55' W 122°25'0 0.5
2018-Jul-13 05:00N 37°55' W 122°25'2 3.8
2018-Jul-13 04:30N 37°54' W 122°22'0 0.0
2018-Jul-13 04:00N 37°54' W 122°22'0 0.0
2018-Jul-13 03:30N 37°54' W 122°22'0 0.0
2018-Jul-13 03:00N 37°54' W 122°22'0 0.0
2018-Jul-13 02:30N 37°54' W 122°22'0 0.0
2018-Jul-13 02:00N 37°54' W 122°22'0 0.0
2018-Jul-13 01:30N 37°54' W 122°22'0 0.0
2018-Jul-13 01:00N 37°54' W 122°22'0 0.0
2018-Jul-13 00:30N 37°54' W 122°22'0 0.0
2018-Jul-13 00:00N 37°54' W 122°22'0 0.0
2018-Jul-12 23:30N 37°54' W 122°22'0 0.0
2018-Jul-12 23:00N 37°54' W 122°22'0 0.0
2018-Jul-12 22:30N 37°54' W 122°22'0 0.0
2018-Jul-12 22:00N 37°54' W 122°22'0 0.0
2018-Jul-12 21:30N 37°54' W 122°22'0 0.0
2018-Jul-12 21:00N 37°54' W 122°22'0 0.0
2018-Jul-12 20:30N 37°54' W 122°22'0 0.0
2018-Jul-12 20:00N 37°54' W 122°22'0 0.2
2018-Jul-12 19:30N 37°54' W 122°22'0 0.0
2018-Jul-12 19:00N 37°54' W 122°22'0 0.1
2018-Jul-12 18:30N 37°54' W 122°22'1 1.9
2018-Jul-12 18:00N 37°55' W 122°22'1 1.9
2018-Jul-12 17:30N 37°54' W 122°22'0 0.1
2018-Jul-12 17:00N 37°54' W 122°22'0 0.0
2018-Jul-12 16:30N 37°54' W 122°22'0 0.0
2018-Jul-12 16:00N 37°54' W 122°22'0 0.0
2018-Jul-12 15:30N 37°54' W 122°22'0 0.0
2018-Jul-12 15:00N 37°54' W 122°22'0 0.0
2018-Jul-12 14:30N 37°54' W 122°22'0 0.0
2018-Jul-12 14:00N 37°54' W 122°22'0 0.0
2018-Jul-12 13:30N 37°54' W 122°22'0 0.0
2018-Jul-12 13:00N 37°54' W 122°22'0 0.0
2018-Jul-12 12:30N 37°54' W 122°22'2 3.8
2018-Jul-12 11:59N 37°55' W 122°25'0 0.0
2018-Jul-12 11:29N 37°55' W 122°25'0 0.0
2018-Jul-12 11:00N 37°55' W 122°25'0 0.0
2018-Jul-12 10:30N 37°55' W 122°25'0 0.0
2018-Jul-12 10:00N 37°55' W 122°25'0 0.0
2018-Jul-12 09:30N 37°55' W 122°25'0 0.0
2018-Jul-12 09:00N 37°55' W 122°25'0 0.0
2018-Jul-12 08:30N 37°55' W 122°25'0 0.0
2018-Jul-12 08:00N 37°55' W 122°25'0 0.0
2018-Jul-12 07:30N 37°55' W 122°25'0 0.0
2018-Jul-12 07:00N 37°55' W 122°25'  
Track history (hours):
 
Tides and Currents Weather Stations Pressure Air Temp Water Temp Dewpoint Dewpoint Depression Visibility Wind Speed Wind Dir Waves Ship Positions

Keegan Foss

Owner: FOSS MARITIME CO, SEATTLE, WA. More information available from US FCC via Universal Licensing System and Coast Guard Vessel Documentation Center.

Last reported at 2018-Jul-22 06:30 UTC. Time now 2018-Jul-22 06:30 UTC.
Position N 37°55' W 122°22'.

Length 31 m; draft 3.6 m.

Type: Tug. MMSI: 366979330.

Date/timePositionNaut miles runAvg speedWind from/ knotsBaromVisibWave heightAir tempDewpointWater temp
2018-Jul-22 06:30N 37°55' W 122°22'1 1.5
2018-Jul-22 06:01N 37°54' W 122°22'2 4.6
2018-Jul-22 05:30N 37°54' W 122°25'4 7.6
2018-Jul-22 05:00N 37°50' W 122°23'4 8.8
2018-Jul-22 04:30N 37°46' W 122°21'2 4.3
2018-Jul-22 03:59N 37°44' W 122°20'0 0.0
2018-Jul-22 03:26N 37°44' W 122°20'0 0.1
2018-Jul-22 02:59N 37°44' W 122°20'0 0.0
2018-Jul-22 02:29N 37°44' W 122°20'0 0.1
2018-Jul-22 01:59N 37°44' W 122°20'0 0.0
2018-Jul-22 01:29N 37°44' W 122°20'0 0.0
2018-Jul-22 00:59N 37°44' W 122°20'0 0.0
2018-Jul-22 00:29N 37°44' W 122°20'0 0.0
2018-Jul-21 23:59N 37°44' W 122°20'0 0.0
2018-Jul-21 23:29N 37°44' W 122°20'0 0.0
2018-Jul-21 22:59N 37°44' W 122°20'0 0.0
2018-Jul-21 22:29N 37°44' W 122°20'0 0.1
2018-Jul-21 21:59N 37°44' W 122°20'0 0.0
2018-Jul-21 21:30N 37°44' W 122°20'1 1.6
2018-Jul-21 21:00N 37°45' W 122°21'4 7.0
2018-Jul-21 20:30N 37°48' W 122°22'3 6.7
2018-Jul-21 20:00N 37°51' W 122°24'3 6.9
2018-Jul-21 19:30N 37°54' W 122°24'1 2.6
2018-Jul-21 19:00N 37°54' W 122°22'0 0.1
2018-Jul-21 18:29N 37°54' W 122°22'0 0.0
2018-Jul-21 17:59N 37°54' W 122°22'0 0.0
2018-Jul-21 17:26N 37°54' W 122°22'0 0.0
2018-Jul-21 16:59N 37°54' W 122°22'0 0.0
2018-Jul-21 16:29N 37°54' W 122°22'0 0.0
2018-Jul-21 15:59N 37°54' W 122°22'0 0.0
2018-Jul-21 15:29N 37°54' W 122°22'0 0.0
2018-Jul-21 14:59N 37°54' W 122°22'0 0.0
2018-Jul-21 14:29N 37°54' W 122°22'0 0.0
2018-Jul-21 13:59N 37°54' W 122°22'0 0.0
2018-Jul-21 13:29N 37°54' W 122°22'0 0.0
2018-Jul-21 12:59N 37°54' W 122°22'0 0.0
2018-Jul-21 12:29N 37°54' W 122°22'0 0.0
2018-Jul-21 11:59N 37°54' W 122°22'0 0.0
2018-Jul-21 11:29N 37°54' W 122°22'0 0.0
2018-Jul-21 10:59N 37°54' W 122°22'0 0.0
2018-Jul-21 10:29N 37°54' W 122°22'0 0.0
2018-Jul-21 09:59N 37°54' W 122°22'0 0.0
2018-Jul-21 09:29N 37°54' W 122°22'0 0.0
2018-Jul-21 08:59N 37°54' W 122°22'0 0.0
2018-Jul-21 08:29N 37°54' W 122°22'0 0.0
2018-Jul-21 07:59N 37°54' W 122°22'0 0.0
2018-Jul-21 07:29N 37°54' W 122°22'0 0.0
2018-Jul-21 06:59N 37°54' W 122°22'0 0.0
2018-Jul-21 06:29N 37°54' W 122°22'0 0.0
2018-Jul-21 05:59N 37°54' W 122°22'0 0.0
2018-Jul-21 05:29N 37°54' W 122°22'0 0.0
2018-Jul-21 04:59N 37°54' W 122°22'0 0.0
2018-Jul-21 04:29N 37°54' W 122°22'0 0.0
2018-Jul-21 04:00N 37°54' W 122°22'0 0.0
2018-Jul-21 03:30N 37°54' W 122°22'1 1.8
2018-Jul-21 03:00N 37°55' W 122°22'1 1.4
2018-Jul-21 02:30N 37°55' W 122°22'1 1.0
2018-Jul-21 02:00N 37°54' W 122°22'2 4.1
2018-Jul-21 01:30N 37°55' W 122°25'0 0.0
2018-Jul-21 01:00N 37°55' W 122°25'1 1.2
2018-Jul-21 00:30N 37°55' W 122°25'1 2.4
2018-Jul-21 00:00N 37°54' W 122°25'1 2.1
2018-Jul-20 23:27N 37°55' W 122°25'0 0.0
2018-Jul-20 23:00N 37°55' W 122°25'1 1.1
2018-Jul-20 22:30N 37°55' W 122°25'1 1.1
2018-Jul-20 22:00N 37°55' W 122°25'0 0.3
2018-Jul-20 21:30N 37°55' W 122°25'0 0.0
2018-Jul-20 20:59N 37°55' W 122°25'0 0.0
2018-Jul-20 20:29N 37°55' W 122°25'0 0.0
2018-Jul-20 19:59N 37°55' W 122°25'0 0.0
2018-Jul-20 19:26N 37°55' W 122°25'0 0.0
2018-Jul-20 18:59N 37°55' W 122°25'0 0.1
2018-Jul-20 18:29N 37°55' W 122°25'0 0.1
2018-Jul-20 17:59N 37°55' W 122°25'0 0.0
2018-Jul-20 17:29N 37°55' W 122°25'0 0.0
2018-Jul-20 16:59N 37°55' W 122°25'0 0.0
2018-Jul-20 16:29N 37°55' W 122°25'0 0.0
2018-Jul-20 15:59N 37°55' W 122°25'0 0.0
2018-Jul-20 15:29N 37°55' W 122°25'0 0.0
2018-Jul-20 14:59N 37°55' W 122°25'0 0.0
2018-Jul-20 14:20N 37°55' W 122°25'0 0.0
2018-Jul-20 13:59N 37°55' W 122°25'0 0.0
2018-Jul-20 13:29N 37°55' W 122°25'0 0.0
2018-Jul-20 12:59N 37°55' W 122°25'0 0.0
2018-Jul-20 12:26N 37°55' W 122°25'0 0.0
2018-Jul-20 11:56N 37°55' W 122°25'0 0.0
2018-Jul-20 11:30N 37°55' W 122°25'1 2.1
2018-Jul-20 11:00N 37°55' W 122°25'1 2.3
2018-Jul-20 10:30N 37°56' W 122°25'0 0.0
2018-Jul-20 10:00N 37°56' W 122°25'1 2.1
2018-Jul-20 09:30N 37°55' W 122°24'2 3.4
2018-Jul-20 09:00N 37°54' W 122°22'0 0.0
2018-Jul-20 08:31N 37°54' W 122°22'0 0.0
2018-Jul-20 08:00N 37°54' W 122°22'0 0.0
2018-Jul-20 07:30N 37°54' W 122°22'0 0.0
2018-Jul-20 07:00N 37°54' W 122°22'0 0.0
2018-Jul-20 06:30N 37°54' W 122°22'0 0.0
2018-Jul-20 06:00N 37°54' W 122°22'0 0.9
2018-Jul-20 05:30N 37°54' W 122°22'0 0.2
2018-Jul-20 05:00N 37°54' W 122°22'1 1.9
2018-Jul-20 04:31N 37°54' W 122°23'0 0.9
2018-Jul-20 04:00N 37°54' W 122°23'2 3.6
2018-Jul-20 03:30N 37°53' W 122°25'3 6.9
2018-Jul-20 03:00N 37°50' W 122°22'1 1.6
2018-Jul-20 02:30N 37°49' W 122°22'0 0.1
2018-Jul-20 02:00N 37°49' W 122°22'0 0.1
2018-Jul-20 01:31N 37°49' W 122°22'1 2.9
2018-Jul-20 01:00N 37°51' W 122°23'3 6.7
2018-Jul-20 00:31N 37°53' W 122°25'2 4.2
2018-Jul-20 00:01N 37°54' W 122°22'2 3.7
2018-Jul-19 23:30N 37°55' W 122°25'0 0.7
2018-Jul-19 23:00N 37°55' W 122°25'0 0.1
2018-Jul-19 22:31N 37°55' W 122°25'2 3.5
2018-Jul-19 22:01N 37°54' W 122°25'1 1.2
2018-Jul-19 21:31N 37°53' W 122°25'2 3.7
2018-Jul-19 21:01N 37°55' W 122°25'0 0.9
2018-Jul-19 20:30N 37°55' W 122°25'0 0.0
2018-Jul-19 20:00N 37°55' W 122°25'0 0.0
2018-Jul-19 19:30N 37°55' W 122°25'0 0.0
2018-Jul-19 19:00N 37°55' W 122°25'0 0.0
2018-Jul-19 18:30N 37°55' W 122°25'0 0.0
2018-Jul-19 18:00N 37°55' W 122°25'0 0.0
2018-Jul-19 17:30N 37°55' W 122°25'0 0.0
2018-Jul-19 17:00N 37°55' W 122°25'0 0.0
2018-Jul-19 16:30N 37°55' W 122°25'0 0.0
2018-Jul-19 16:00N 37°55' W 122°25'0 0.0
2018-Jul-19 15:30N 37°55' W 122°25'0 0.0
2018-Jul-19 15:00N 37°55' W 122°25'0 0.0
2018-Jul-19 14:30N 37°55' W 122°25'0 0.0
2018-Jul-19 13:30N 37°55' W 122°25'0 0.0
2018-Jul-19 13:00N 37°55' W 122°25'0 0.0
2018-Jul-19 12:30N 37°55' W 122°25'0 0.0
2018-Jul-19 12:00N 37°55' W 122°25'0 0.0
2018-Jul-19 11:30N 37°55' W 122°25'0 0.0
2018-Jul-19 11:00N 37°55' W 122°25'0 0.5
2018-Jul-19 10:31N 37°55' W 122°25'2 3.9
2018-Jul-19 10:00N 37°54' W 122°22'0 0.0
2018-Jul-19 09:30N 37°54' W 122°22'0 0.0
2018-Jul-19 09:00N 37°54' W 122°22'0 0.0
2018-Jul-19 08:30N 37°54' W 122°22'0 0.0
2018-Jul-19 08:00N 37°54' W 122°22'0 0.0
2018-Jul-19 07:27N 37°54' W 122°22'0 0.0
2018-Jul-19 07:00N 37°54' W 122°22'0 0.0
2018-Jul-19 06:27N 37°54' W 122°22'0 0.0
2018-Jul-19 06:00N 37°54' W 122°22'0 0.0
2018-Jul-19 05:30N 37°54' W 122°22'0 0.0
2018-Jul-19 05:00N 37°54' W 122°22'0 0.0
2018-Jul-19 04:30N 37°54' W 122°22'1 1.1
2018-Jul-19 04:00N 37°54' W 122°23'2 3.7
2018-Jul-19 03:30N 37°56' W 122°25'0 0.2
2018-Jul-19 03:00N 37°55' W 122°25'2 4.0
2018-Jul-19 02:30N 37°54' W 122°25'2 4.6
2018-Jul-19 02:00N 37°52' W 122°27'2 4.5
2018-Jul-19 01:30N 37°50' W 122°28'3 6.7
2018-Jul-19 01:01N 37°53' W 122°26'3 6.0
2018-Jul-19 00:30N 37°55' W 122°25'0 0.0
2018-Jul-19 00:00N 37°55' W 122°25'0 0.0
2018-Jul-18 23:30N 37°55' W 122°25'0 0.0
2018-Jul-18 23:00N 37°55' W 122°25'0 0.0
2018-Jul-18 22:30N 37°55' W 122°25'0 0.0
2018-Jul-18 22:00N 37°55' W 122°25'0 0.0
2018-Jul-18 21:30N 37°55' W 122°25'0 0.0
2018-Jul-18 20:54N 37°55' W 122°25'0 0.0
2018-Jul-18 20:30N 37°55' W 122°25'0 0.0
2018-Jul-18 20:00N 37°55' W 122°25'0 0.0
2018-Jul-18 19:30N 37°55' W 122°25'0 0.0
2018-Jul-18 19:00N 37°55' W 122°25'0 0.0
2018-Jul-18 18:30N 37°55' W 122°25'0 0.0
2018-Jul-18 18:00N 37°55' W 122°25'0 0.0
2018-Jul-18 17:30N 37°55' W 122°25'0 0.0
2018-Jul-18 17:00N 37°55' W 122°25'0 0.0
2018-Jul-18 16:30N 37°55' W 122°25'0 0.0
2018-Jul-18 16:00N 37°55' W 122°25'0 0.0
2018-Jul-18 15:30N 37°55' W 122°25'0 0.0
2018-Jul-18 15:00N 37°55' W 122°25'0 0.0
2018-Jul-18 14:30N 37°55' W 122°25'0 0.0
2018-Jul-18 13:30N 37°55' W 122°25'0 0.0
2018-Jul-18 13:00N 37°55' W 122°25'0 0.0
2018-Jul-18 12:12N 37°55' W 122°25'0 0.0
2018-Jul-18 12:00N 37°55' W 122°25'0 0.0
2018-Jul-18 11:30N 37°55' W 122°25'0 0.0
2018-Jul-18 10:30N 37°55' W 122°25'0 0.0
2018-Jul-18 10:00N 37°55' W 122°25'2 4.0
2018-Jul-18 09:30N 37°54' W 122°22'0 0.0
2018-Jul-18 08:58N 37°54' W 122°22'0 0.0
2018-Jul-18 08:29N 37°54' W 122°22'0 0.0
2018-Jul-18 07:59N 37°54' W 122°22'0 0.0
2018-Jul-18 07:28N 37°54' W 122°22'0 0.0
2018-Jul-18 06:55N 37°54' W 122°22'0 0.0
2018-Jul-18 06:28N 37°54' W 122°22'0 0.0
2018-Jul-18 05:58N 37°54' W 122°22'0 0.0
2018-Jul-18 05:28N 37°54' W 122°22'0 0.0
2018-Jul-18 04:58N 37°54' W 122°22'0 0.0
2018-Jul-18 04:26N 37°54' W 122°22'0 0.0
2018-Jul-18 03:59N 37°54' W 122°22'0 0.0
2018-Jul-18 03:28N 37°54' W 122°22'0 0.0
2018-Jul-18 02:58N 37°54' W 122°22'0 0.0
2018-Jul-18 02:28N 37°54' W 122°22'0 0.0
2018-Jul-18 01:58N 37°54' W 122°22'2 4.3
2018-Jul-18 01:31N 37°55' W 122°25'0 0.0
2018-Jul-18 00:58N 37°55' W 122°25'0 0.0
2018-Jul-18 00:28N 37°55' W 122°25'0 0.0
2018-Jul-17 23:55N 37°55' W 122°25'0 0.0
2018-Jul-17 23:28N 37°55' W 122°25'0 0.0
2018-Jul-17 22:58N 37°55' W 122°25'0 0.0
2018-Jul-17 22:22N 37°55' W 122°25'0 0.0
2018-Jul-17 21:58N 37°55' W 122°25'0 0.0
2018-Jul-17 21:28N 37°55' W 122°25'0 0.0
2018-Jul-17 20:55N 37°55' W 122°25'0 0.0
2018-Jul-17 20:28N 37°55' W 122°25'0 0.0
2018-Jul-17 19:58N 37°55' W 122°25'0 0.1
2018-Jul-17 19:30N 37°55' W 122°25'1 1.1
2018-Jul-17 19:00N 37°55' W 122°25'1 1.2
2018-Jul-17 18:30N 37°55' W 122°25'0 0.0
2018-Jul-17 18:01N 37°55' W 122°25'0 0.0
2018-Jul-17 17:31N 37°55' W 122°25'0 0.0
2018-Jul-17 17:01N 37°55' W 122°25'0 0.0
2018-Jul-17 16:31N 37°55' W 122°25'0 0.0
2018-Jul-17 16:01N 37°55' W 122°25'0 0.4
2018-Jul-17 15:31N 37°55' W 122°25'0 0.0
2018-Jul-17 15:00N 37°55' W 122°25'2 3.1
2018-Jul-17 14:31N 37°54' W 122°25'0 0.9
2018-Jul-17 14:01N 37°54' W 122°25'1 2.5
2018-Jul-17 13:30N 37°55' W 122°25'0 0.0
2018-Jul-17 13:00N 37°55' W 122°25'0 0.0
2018-Jul-17 12:31N 37°55' W 122°25'0 0.0
2018-Jul-17 12:00N 37°55' W 122°25'0 0.0
2018-Jul-17 11:29N 37°55' W 122°25'1 1.9
2018-Jul-17 11:00N 37°55' W 122°24'2 3.6
2018-Jul-17 10:31N 37°54' W 122°22'0 0.0
2018-Jul-17 10:01N 37°54' W 122°22'0 0.0
2018-Jul-17 09:31N 37°54' W 122°22'0 0.0
2018-Jul-17 09:01N 37°54' W 122°22'0 0.0
2018-Jul-17 08:31N 37°54' W 122°22'0 0.0
2018-Jul-17 08:00N 37°54' W 122°22'0 0.0
2018-Jul-17 07:31N 37°54' W 122°22'0 0.0
2018-Jul-17 07:00N 37°54' W 122°22'0 0.0
2018-Jul-17 06:30N 37°54' W 122°22'0 0.2
2018-Jul-17 06:01N 37°54' W 122°22'1 1.8
2018-Jul-17 05:30N 37°55' W 122°22'0 0.5
2018-Jul-17 05:01N 37°55' W 122°22'1 1.6
2018-Jul-17 04:30N 37°54' W 122°22'0 0.0
2018-Jul-17 04:01N 37°54' W 122°22'2 4.0
2018-Jul-17 03:31N 37°55' W 122°25'0 0.0
2018-Jul-17 03:01N 37°55' W 122°25'0 0.0
2018-Jul-17 02:31N 37°55' W 122°25'0 0.0
2018-Jul-17 02:00N 37°55' W 122°25'0 0.0
2018-Jul-17 01:31N 37°55' W 122°25'0 0.0
2018-Jul-17 01:01N 37°55' W 122°25'0 0.0
2018-Jul-17 00:31N 37°55' W 122°25'0 0.0
2018-Jul-16 23:30N 37°55' W 122°25'0 0.0
2018-Jul-16 23:00N 37°55' W 122°25'0 0.0
2018-Jul-16 22:30N 37°55' W 122°25'2 4.7
2018-Jul-16 22:00N 37°54' W 122°22'0 0.8
2018-Jul-16 21:31N 37°55' W 122°22'0 0.2
2018-Jul-16 21:01N 37°55' W 122°22'2 3.7
2018-Jul-16 20:31N 37°55' W 122°24'1 2.1
2018-Jul-16 20:01N 37°55' W 122°25'1 2.2
2018-Jul-16 19:31N 37°55' W 122°24'1 2.9
2018-Jul-16 19:00N 37°54' W 122°22'0 0.0
2018-Jul-16 18:29N 37°54' W 122°22'0 0.0
2018-Jul-16 17:59N 37°54' W 122°22'0 0.1
2018-Jul-16 17:30N 37°54' W 122°22'1 1.9
2018-Jul-16 17:00N 37°55' W 122°22'1 1.7
2018-Jul-16 16:30N 37°54' W 122°22'3 5.3
2018-Jul-16 16:00N 37°54' W 122°25'3 6.1
2018-Jul-16 15:30N 37°51' W 122°24'4 8.2
2018-Jul-16 15:00N 37°47' W 122°21'1 2.4
2018-Jul-16 14:30N 37°46' W 122°21'0 0.0
2018-Jul-16 13:57N 37°46' W 122°21'0 0.0
2018-Jul-16 13:22N 37°46' W 122°21'0 0.0
2018-Jul-16 13:01N 37°46' W 122°21'0 0.0
2018-Jul-16 12:30N 37°46' W 122°21'0 0.1
2018-Jul-16 12:00N 37°46' W 122°20'0 0.0
2018-Jul-16 11:30N 37°46' W 122°20'0 0.1
2018-Jul-16 11:00N 37°46' W 122°20'0 0.2
2018-Jul-16 10:31N 37°46' W 122°20'0 0.2
2018-Jul-16 10:01N 37°46' W 122°20'0 0.0
2018-Jul-16 09:27N 37°46' W 122°20'0 0.1
2018-Jul-16 09:00N 37°46' W 122°20'0 0.0
2018-Jul-16 08:30N 37°46' W 122°20'0 0.0
2018-Jul-16 08:00N 37°46' W 122°20'0 0.0
2018-Jul-16 07:27N 37°46' W 122°20'0 0.0
2018-Jul-16 07:00N 37°46' W 122°20'0 0.1
2018-Jul-16 06:30N 37°46' W 122°20'0 0.1
2018-Jul-16 06:01N 37°46' W 122°20'3 5.1
2018-Jul-16 05:30N 37°48' W 122°22'4 7.4
2018-Jul-16 05:00N 37°52' W 122°24'3 5.7
2018-Jul-16 04:30N 37°54' W 122°24'1 2.7
2018-Jul-16 04:01N 37°55' W 122°22'0 0.3
2018-Jul-16 03:30N 37°55' W 122°22'1 1.8
2018-Jul-16 02:59N 37°54' W 122°22'0 0.0
2018-Jul-16 02:29N 37°54' W 122°22'0 0.0
2018-Jul-16 01:59N 37°54' W 122°22'0 0.0
2018-Jul-16 01:29N 37°54' W 122°22'0 0.0
2018-Jul-16 00:59N 37°54' W 122°22'0 0.0
2018-Jul-16 00:29N 37°54' W 122°22'0 0.0
2018-Jul-15 23:59N 37°54' W 122°22'2 4.3
2018-Jul-15 23:30N 37°55' W 122°25'0 0.0
2018-Jul-15 23:00N 37°55' W 122°25'4 7.5
2018-Jul-15 22:30N 37°52' W 122°23'3 5.6
2018-Jul-15 22:00N 37°49' W 122°22'2 4.3
2018-Jul-15 21:30N 37°47' W 122°21'2 3.5
2018-Jul-15 21:00N 37°45' W 122°21'0 0.0
2018-Jul-15 20:30N 37°45' W 122°21'0 0.0
2018-Jul-15 20:01N 37°45' W 122°21'0 0.0
2018-Jul-15 19:30N 37°45' W 122°21'0 0.0
2018-Jul-15 19:01N 37°45' W 122°21'0 0.0
2018-Jul-15 18:30N 37°45' W 122°21'0 0.1
2018-Jul-15 18:00N 37°45' W 122°21'0 0.1
2018-Jul-15 17:30N 37°46' W 122°21'0 0.1
2018-Jul-15 17:01N 37°46' W 122°21'0 0.3
2018-Jul-15 16:30N 37°46' W 122°21'0 0.1
2018-Jul-15 16:00N 37°46' W 122°21'0 0.0
2018-Jul-15 15:30N 37°46' W 122°21'0 0.1
2018-Jul-15 15:00N 37°46' W 122°21'1 2.4
2018-Jul-15 14:30N 37°47' W 122°21'2 4.2
2018-Jul-15 14:00N 37°49' W 122°21'2 3.9
2018-Jul-15 13:30N 37°51' W 122°23'3 7.0
2018-Jul-15 13:00N 37°54' W 122°25'2 3.9
2018-Jul-15 12:30N 37°54' W 122°22'0 0.1
2018-Jul-15 12:00N 37°54' W 122°22'0 0.0
2018-Jul-15 11:30N 37°54' W 122°22'0 0.0
2018-Jul-15 11:00N 37°54' W 122°22'0 0.0
2018-Jul-15 10:30N 37°54' W 122°22'0 0.0
2018-Jul-15 10:00N 37°54' W 122°22'0 0.0
2018-Jul-15 09:30N 37°54' W 122°22'0 0.1
2018-Jul-15 09:00N 37°54' W 122°22'0 0.3
2018-Jul-15 08:30N 37°54' W 122°23'2 4.7
2018-Jul-15 08:00N 37°52' W 122°24'4 7.2
2018-Jul-15 07:31N 37°49' W 122°21'2 3.4
2018-Jul-15 06:59N 37°48' W 122°20'0 0.0
2018-Jul-15 06:29N 37°48' W 122°20'0 0.0
2018-Jul-15 05:59N 37°48' W 122°20'0 0.0
2018-Jul-15 05:26N 37°48' W 122°20'0 0.0
2018-Jul-15 04:59N 37°48' W 122°20'0 0.0
2018-Jul-15 04:29N 37°48' W 122°20'0 0.0
2018-Jul-15 03:59N 37°48' W 122°20'0 0.0
2018-Jul-15 03:29N 37°48' W 122°20'0 0.0
2018-Jul-15 02:59N 37°48' W 122°20'0 0.0
2018-Jul-15 02:29N 37°48' W 122°20'0 0.0
2018-Jul-15 01:59N 37°48' W 122°20'0 0.0
2018-Jul-15 01:29N 37°48' W 122°20'0 0.0
2018-Jul-15 00:59N 37°48' W 122°20'0 0.0
2018-Jul-15 00:29N 37°48' W 122°20'0 0.0
2018-Jul-15 00:00N 37°48' W 122°20'0 0.0
2018-Jul-14 23:31N 37°48' W 122°20'0 0.0
2018-Jul-14 23:01N 37°48' W 122°20'1 2.4
2018-Jul-14 22:30N 37°48' W 122°21'1 2.0
2018-Jul-14 22:00N 37°49' W 122°22'3 6.2
2018-Jul-14 21:30N 37°52' W 122°24'4 7.3
2018-Jul-14 21:00N 37°55' W 122°25'0 0.4
2018-Jul-14 20:30N 37°56' W 122°25'1 1.0
2018-Jul-14 20:00N 37°55' W 122°25'3 5.1
2018-Jul-14 19:30N 37°53' W 122°26'4 7.4
2018-Jul-14 19:01N 37°50' W 122°28'4 7.3
2018-Jul-14 18:30N 37°53' W 122°26'3 5.4
2018-Jul-14 18:00N 37°55' W 122°25'0 0.0
2018-Jul-14 17:30N 37°55' W 122°25'0 0.0
2018-Jul-14 17:00N 37°55' W 122°25'2 4.2
2018-Jul-14 16:30N 37°54' W 122°22'0 0.1
2018-Jul-14 15:59N 37°54' W 122°22'0 0.0
2018-Jul-14 15:29N 37°54' W 122°22'0 0.0
2018-Jul-14 14:59N 37°54' W 122°22'0 0.0
2018-Jul-14 14:29N 37°54' W 122°22'0 0.0
2018-Jul-14 13:29N 37°54' W 122°22'0 0.0
2018-Jul-14 12:59N 37°54' W 122°22'0 0.0
2018-Jul-14 12:29N 37°54' W 122°22'2 4.0
2018-Jul-14 12:00N 37°55' W 122°25'0 0.8
2018-Jul-14 11:30N 37°55' W 122°25'0 0.0
2018-Jul-14 11:00N 37°55' W 122°25'0 0.0
2018-Jul-14 10:30N 37°55' W 122°25'0 0.0
2018-Jul-14 10:00N 37°55' W 122°25'0 0.0
2018-Jul-14 09:30N 37°55' W 122°25'0 0.0
2018-Jul-14 09:00N 37°55' W 122°25'0 0.0
2018-Jul-14 08:30N 37°55' W 122°25'0 0.0
2018-Jul-14 08:00N 37°55' W 122°25'0 0.0
2018-Jul-14 07:30N 37°55' W 122°25'0 0.0
2018-Jul-14 07:00N 37°55' W 122°25'0 0.0
2018-Jul-14 06:30N 37°55' W 122°25'0 0.0
2018-Jul-14 06:00N 37°55' W 122°25'0 0.0
2018-Jul-14 05:30N 37°55' W 122°25'0 0.0
2018-Jul-14 05:00N 37°55' W 122°25'0 0.0
2018-Jul-14 04:30N 37°55' W 122°25'0 0.0
2018-Jul-14 04:00N 37°55' W 122°25'0 0.0
2018-Jul-14 03:30N 37°55' W 122°25'0 0.0
2018-Jul-14 03:00N 37°55' W 122°25'0 0.0
2018-Jul-14 02:30N 37°55' W 122°25'0 0.0
2018-Jul-14 02:00N 37°55' W 122°25'0 0.0
2018-Jul-14 01:30N 37°55' W 122°25'0 0.0
2018-Jul-14 01:00N 37°55' W 122°25'0 0.0
2018-Jul-14 00:30N 37°55' W 122°25'0 0.4
2018-Jul-14 00:00N 37°55' W 122°25'1 1.1
2018-Jul-13 23:30N 37°55' W 122°25'2 4.6
2018-Jul-13 23:00N 37°55' W 122°22'1 1.1
2018-Jul-13 22:30N 37°55' W 122°22'0 0.1
2018-Jul-13 22:00N 37°55' W 122°22'2 3.9
2018-Jul-13 21:30N 37°55' W 122°25'0 0.0
2018-Jul-13 21:00N 37°55' W 122°25'0 1.0
2018-Jul-13 20:30N 37°55' W 122°25'2 3.4
2018-Jul-13 20:00N 37°54' W 122°25'1 1.7
2018-Jul-13 19:30N 37°54' W 122°24'2 2.6
2018-Jul-13 18:55N 37°54' W 122°22'0 0.0
2018-Jul-13 18:28N 37°54' W 122°22'0 0.0
2018-Jul-13 17:52N 37°54' W 122°22'0 0.0
2018-Jul-13 17:28N 37°54' W 122°22'0 0.0
2018-Jul-13 16:58N 37°54' W 122°22'0 0.0
2018-Jul-13 16:28N 37°54' W 122°22'0 0.0
2018-Jul-13 15:58N 37°54' W 122°22'0 0.0
2018-Jul-13 15:28N 37°54' W 122°22'0 0.0
2018-Jul-13 14:58N 37°54' W 122°22'0 0.0
2018-Jul-13 14:28N 37°54' W 122°22'0 0.0
2018-Jul-13 13:28N 37°54' W 122°22'0 0.0
2018-Jul-13 12:58N 37°54' W 122°22'0 0.0
2018-Jul-13 12:28N 37°54' W 122°22'0 0.0
2018-Jul-13 11:58N 37°54' W 122°22'0 0.0
2018-Jul-13 11:28N 37°54' W 122°22'0 0.0
2018-Jul-13 10:55N 37°54' W 122°22'0 0.0
2018-Jul-13 10:28N 37°54' W 122°22'0 0.0
2018-Jul-13 09:58N 37°54' W 122°22'0 0.0
2018-Jul-13 09:28N 37°54' W 122°22'0 0.0
2018-Jul-13 08:58N 37°54' W 122°22'0 0.0
2018-Jul-13 08:28N 37°54' W 122°22'0 0.0
2018-Jul-13 07:58N 37°54' W 122°22'0 0.0
2018-Jul-13 07:28N 37°54' W 122°22'0 0.0
2018-Jul-13 06:58N 37°54' W 122°22'0 0.5
2018-Jul-13 06:30N 37°54' W 122°23'2 4.3
2018-Jul-13 06:00N 37°54' W 122°25'2 3.1
2018-Jul-13 05:30N 37°55' W 122°25'0 0.5
2018-Jul-13 05:00N 37°55' W 122°25'2 3.8
2018-Jul-13 04:30N 37°54' W 122°22'0 0.0
2018-Jul-13 04:00N 37°54' W 122°22'0 0.0
2018-Jul-13 03:30N 37°54' W 122°22'0 0.0
2018-Jul-13 03:00N 37°54' W 122°22'0 0.0
2018-Jul-13 02:30N 37°54' W 122°22'0 0.0
2018-Jul-13 02:00N 37°54' W 122°22'0 0.0
2018-Jul-13 01:30N 37°54' W 122°22'0 0.0
2018-Jul-13 01:00N 37°54' W 122°22'0 0.0
2018-Jul-13 00:30N 37°54' W 122°22'0 0.0
2018-Jul-13 00:00N 37°54' W 122°22'0 0.0
2018-Jul-12 23:30N 37°54' W 122°22'0 0.0
2018-Jul-12 23:00N 37°54' W 122°22'0 0.0
2018-Jul-12 22:30N 37°54' W 122°22'0 0.0
2018-Jul-12 22:00N 37°54' W 122°22'0 0.0
2018-Jul-12 21:30N 37°54' W 122°22'0 0.0
2018-Jul-12 21:00N 37°54' W 122°22'0 0.0
2018-Jul-12 20:30N 37°54' W 122°22'0 0.0
2018-Jul-12 20:00N 37°54' W 122°22'0 0.2
2018-Jul-12 19:30N 37°54' W 122°22'0 0.0
2018-Jul-12 19:00N 37°54' W 122°22'0 0.1
2018-Jul-12 18:30N 37°54' W 122°22'1 1.9
2018-Jul-12 18:00N 37°55' W 122°22'1 1.9
2018-Jul-12 17:30N 37°54' W 122°22'0 0.1
2018-Jul-12 17:00N 37°54' W 122°22'0 0.0
2018-Jul-12 16:30N 37°54' W 122°22'0 0.0
2018-Jul-12 16:00N 37°54' W 122°22'0 0.0
2018-Jul-12 15:30N 37°54' W 122°22'0 0.0
2018-Jul-12 15:00N 37°54' W 122°22'0 0.0
2018-Jul-12 14:30N 37°54' W 122°22'0 0.0
2018-Jul-12 14:00N 37°54' W 122°22'0 0.0
2018-Jul-12 13:30N 37°54' W 122°22'0 0.0
2018-Jul-12 13:00N 37°54' W 122°22'0 0.0
2018-Jul-12 12:30N 37°54' W 122°22'2 3.8
2018-Jul-12 11:59N 37°55' W 122°25'0 0.0
2018-Jul-12 11:29N 37°55' W 122°25'0 0.0
2018-Jul-12 11:00N 37°55' W 122°25'0 0.0
2018-Jul-12 10:30N 37°55' W 122°25'0 0.0
2018-Jul-12 10:00N 37°55' W 122°25'0 0.0
2018-Jul-12 09:30N 37°55' W 122°25'0 0.0
2018-Jul-12 09:00N 37°55' W 122°25'0 0.0
2018-Jul-12 08:30N 37°55' W 122°25'0 0.0
2018-Jul-12 08:00N 37°55' W 122°25'0 0.0
2018-Jul-12 07:30N 37°55' W 122°25'0 0.0
2018-Jul-12 07:00N 37°55' W 122°25'  

Dump ship's entire track history